createdAt,value
2022-07-25T00:03:45.068Z,7.90
2022-07-25T00:08:50.494Z,7.70
2022-07-25T00:13:55.911Z,7.97
2022-07-25T00:19:01.850Z,7.80
2022-07-25T00:24:07.777Z,9.07
2022-07-25T00:29:13.868Z,9.20
2022-07-25T00:34:19.224Z,8.43
2022-07-25T00:39:24.528Z,8.87
2022-07-25T00:44:33.077Z,8.83
2022-07-25T00:49:38.836Z,8.93
2022-07-25T00:54:45.125Z,7.97
2022-07-25T00:59:50.623Z,8.93
2022-07-25T01:04:57.672Z,8.80
2022-07-25T01:10:03.093Z,8.70
2022-07-25T01:15:09.773Z,8.77
2022-07-25T01:20:16.948Z,7.70
2022-07-25T01:25:23.731Z,8.77
2022-07-25T01:30:29.259Z,7.23
2022-07-25T01:35:34.698Z,7.23
2022-07-25T01:40:42.967Z,7.83
2022-07-25T01:45:48.903Z,6.83
2022-07-25T01:50:54.341Z,8.03
2022-07-25T01:56:01.049Z,7.87
2022-07-25T02:01:08.209Z,7.03
2022-07-25T02:06:13.774Z,6.60
2022-07-25T02:11:19.112Z,7.30
2022-07-25T02:16:28.849Z,6.93
2022-07-25T02:21:31.591Z,7.07
2022-07-25T02:26:37.054Z,6.60
2022-07-25T02:31:43.676Z,6.93
2022-07-25T02:36:48.986Z,6.40
2022-07-25T02:41:55.054Z,7.30
2022-07-25T02:47:00.830Z,6.60
2022-07-25T02:52:06.294Z,7.80
2022-07-25T02:57:11.735Z,6.20
2022-07-25T03:02:17.469Z,6.73
2022-07-25T03:07:23.005Z,7.33
2022-07-25T03:12:28.448Z,7.30
2022-07-25T03:17:33.909Z,6.80
2022-07-25T03:22:42.995Z,6.93
2022-07-25T03:27:48.434Z,6.83
2022-07-25T03:32:55.468Z,7.00
2022-07-25T03:38:00.934Z,7.33
2022-07-25T03:43:06.693Z,8.30
2022-07-25T03:48:12.729Z,8.20
2022-07-25T03:53:18.145Z,7.90
2022-07-25T03:58:23.481Z,9.23
2022-07-25T04:03:28.834Z,9.90
2022-07-25T04:08:34.238Z,9.70
2022-07-25T04:13:39.786Z,10.53
2022-07-25T04:18:45.271Z,11.10
2022-07-25T04:23:51.413Z,11.10
2022-07-25T04:28:58.417Z,11.57
2022-07-25T04:34:04.110Z,13.60
2022-07-25T04:39:10.063Z,15.33
2022-07-25T04:44:15.505Z,11.60
2022-07-25T04:49:21.379Z,15.13
2022-07-25T04:54:26.755Z,12.80
2022-07-25T04:59:32.396Z,12.53
2022-07-25T05:04:43.445Z,11.73
2022-07-25T05:09:46.172Z,12.63
2022-07-25T05:14:51.540Z,13.10
2022-07-25T05:19:58.391Z,11.27
2022-07-25T05:25:03.900Z,11.30
2022-07-25T05:30:12.635Z,10.43
2022-07-25T05:35:18.059Z,9.80
2022-07-25T05:40:23.420Z,8.53
2022-07-25T05:45:28.820Z,7.73
2022-07-25T05:50:34.544Z,8.47
2022-07-25T05:55:40.683Z,7.37
2022-07-25T06:00:46.673Z,6.10
2022-07-25T06:05:52.078Z,5.10
2022-07-25T06:10:59.396Z,4.57
2022-07-25T06:16:06.590Z,4.47
2022-07-25T06:21:12.065Z,2.70
2022-07-25T06:26:17.480Z,3.00
2022-07-25T06:31:22.973Z,2.93
2022-07-25T06:36:32.570Z,2.70
2022-07-25T06:41:37.398Z,2.70
2022-07-25T06:46:43.628Z,2.50
2022-07-25T06:51:49.423Z,2.40
2022-07-25T06:56:55.780Z,2.50
2022-07-25T07:02:01.316Z,2.53
2022-07-25T07:07:06.742Z,2.30
2022-07-25T07:12:12.771Z,2.35
2022-07-25T07:17:18.167Z,2.47
2022-07-25T07:22:23.560Z,1.98
2022-07-25T07:27:28.995Z,3.02
2022-07-25T07:32:34.455Z,2.22
2022-07-25T07:37:43.486Z,2.12
2022-07-25T07:42:49.190Z,2.17
2022-07-25T07:47:56.003Z,2.12
2022-07-25T07:53:01.936Z,1.90
2022-07-25T07:58:08.151Z,1.65
2022-07-25T08:03:14.096Z,2.20
2022-07-25T08:08:19.629Z,1.85
2022-07-25T08:13:30.782Z,1.87
2022-07-25T08:18:36.267Z,2.30
2022-07-25T08:23:41.699Z,2.40
2022-07-25T08:28:48.386Z,2.00
2022-07-25T08:33:54.691Z,1.85
2022-07-25T08:39:00.105Z,2.12
2022-07-25T08:44:06.069Z,1.82
2022-07-25T08:49:12.660Z,1.95
2022-07-25T08:54:19.410Z,1.52
2022-07-25T08:59:26.209Z,1.90
2022-07-25T09:04:33.307Z,1.75
2022-07-25T09:09:40.118Z,1.50
2022-07-25T09:14:47.976Z,1.55
2022-07-25T09:19:58.903Z,1.85
2022-07-25T09:25:04.351Z,1.67
2022-07-25T09:30:17.410Z,1.70
2022-07-25T09:35:25.664Z,1.65
2022-07-25T09:40:32.458Z,2.80
2022-07-25T09:45:39.482Z,1.20
2022-07-25T09:50:44.937Z,1.60
2022-07-25T09:55:52.765Z,1.40
2022-07-25T10:01:07.147Z,1.70
2022-07-25T10:06:19.961Z,1.50
2022-07-25T10:11:30.791Z,2.55
2022-07-25T10:16:39.106Z,1.72
2022-07-25T10:21:46.481Z,1.35
2022-07-25T10:27:12.106Z,1.22
2022-07-25T10:32:19.486Z,1.10
2022-07-25T10:37:32.231Z,1.12
2022-07-25T10:42:39.277Z,0.93
2022-07-25T10:47:47.617Z,1.30
2022-07-25T10:53:07.121Z,1.22
2022-07-25T10:58:18.439Z,1.27
2022-07-25T11:03:23.154Z,1.20
2022-07-25T11:08:36.171Z,1.10
2022-07-25T11:13:45.137Z,1.12
2022-07-25T11:18:51.705Z,1.20
2022-07-25T11:24:00.861Z,1.40
2022-07-25T11:29:09.551Z,1.40
2022-07-25T11:34:15.234Z,1.10
2022-07-25T11:39:20.877Z,1.27
2022-07-25T11:44:35.091Z,1.55
2022-07-25T11:49:52.612Z,1.22
2022-07-25T11:55:03.963Z,1.42
2022-07-25T12:00:22.698Z,1.30
2022-07-25T12:05:35.224Z,1.72
2022-07-25T12:10:42.053Z,1.40
2022-07-25T12:15:47.638Z,0.95
2022-07-25T12:20:53.952Z,1.25
2022-07-25T12:25:59.352Z,1.10
2022-07-25T12:31:07.104Z,0.98
2022-07-25T12:36:14.972Z,1.00
2022-07-25T12:41:21.882Z,1.32
2022-07-25T12:46:27.843Z,1.05
2022-07-25T12:51:34.302Z,1.15
2022-07-25T12:56:40.788Z,1.07
2022-07-25T13:01:46.326Z,1.12
2022-07-25T13:06:51.989Z,0.90
2022-07-25T13:11:59.157Z,0.90
2022-07-25T13:17:04.784Z,1.30
2022-07-25T13:22:15.146Z,1.27
2022-07-25T13:27:22.625Z,1.40
2022-07-25T13:32:28.869Z,1.05
2022-07-25T13:37:41.850Z,1.17
2022-07-25T13:42:47.275Z,1.00
2022-07-25T13:48:12.018Z,1.40
2022-07-25T13:53:00.947Z,1.10
2022-07-25T13:58:07.136Z,1.42
2022-07-25T14:03:12.759Z,1.30
2022-07-25T14:08:20.056Z,1.20
2022-07-25T14:13:28.106Z,1.10
2022-07-25T14:18:33.566Z,1.15
2022-07-25T14:23:39.013Z,1.17
2022-07-25T14:28:45.344Z,1.12
2022-07-25T14:33:52.917Z,1.02
2022-07-25T14:38:58.518Z,1.10
2022-07-25T14:44:04.764Z,1.12
2022-07-25T14:49:15.393Z,1.92
2022-07-25T14:54:21.819Z,1.20
2022-07-25T14:59:28.456Z,1.30
2022-07-25T15:04:34.195Z,1.22
2022-07-25T15:09:39.720Z,1.32
2022-07-25T15:14:45.028Z,1.60
2022-07-25T15:19:50.816Z,4.80
2022-07-25T15:30:03.445Z,1.00
2022-07-25T15:35:10.010Z,1.45
2022-07-25T15:40:15.474Z,1.30
2022-07-25T15:45:37.750Z,1.57
2022-07-25T15:50:30.014Z,1.62
2022-07-25T15:55:39.124Z,1.62
2022-07-25T16:00:44.848Z,1.37
2022-07-25T16:05:50.385Z,1.77
2022-07-25T16:10:55.806Z,1.25
2022-07-25T16:16:01.224Z,1.22
2022-07-25T16:21:07.130Z,1.30
2022-07-25T16:26:14.933Z,1.20
2022-07-25T16:31:20.450Z,1.25
2022-07-25T16:36:26.926Z,1.30
2022-07-25T16:41:33.723Z,1.32
2022-07-25T16:46:39.714Z,1.42
2022-07-25T16:51:45.814Z,1.57
2022-07-25T16:56:53.741Z,1.67
2022-07-25T17:01:58.465Z,1.57
2022-07-25T17:07:04.339Z,1.98
2022-07-25T17:12:09.763Z,1.50
2022-07-25T17:17:26.892Z,1.45
2022-07-25T17:22:33.716Z,1.35
2022-07-25T17:27:39.058Z,1.50
2022-07-25T17:32:47.614Z,1.60
2022-07-25T17:37:53.484Z,1.70
2022-07-25T17:42:58.831Z,1.90
2022-07-25T17:48:04.607Z,2.05
2022-07-25T17:53:10.035Z,1.60
2022-07-25T17:58:17.204Z,1.90
2022-07-25T18:03:24.006Z,1.77
2022-07-25T18:08:49.896Z,1.95
2022-07-25T18:13:59.196Z,4.75
2022-07-25T18:19:05.412Z,11.75
2022-07-25T18:24:11.218Z,8.53
2022-07-25T18:29:17.739Z,5.70
2022-07-25T18:34:23.070Z,3.98
2022-07-25T18:39:28.553Z,3.15
2022-07-25T18:44:35.351Z,3.58
2022-07-25T18:49:40.815Z,3.80
2022-07-25T18:54:46.186Z,3.67
2022-07-25T18:59:51.888Z,3.70
2022-07-25T19:04:57.306Z,3.58
2022-07-25T19:10:04.062Z,2.98
2022-07-25T19:15:09.947Z,3.00
2022-07-25T19:20:16.111Z,2.92
2022-07-25T19:25:21.731Z,3.17
2022-07-25T19:30:30.267Z,3.20
2022-07-25T19:35:37.083Z,2.85
2022-07-25T19:40:43.407Z,3.17
2022-07-25T19:45:49.856Z,2.87
2022-07-25T19:50:55.295Z,4.33
2022-07-25T19:56:01.622Z,3.15
2022-07-25T20:01:07.092Z,3.47
2022-07-25T20:06:12.815Z,3.50
2022-07-25T20:11:18.224Z,3.40
2022-07-25T20:16:24.129Z,3.30
2022-07-25T20:21:30.647Z,2.90
2022-07-25T20:26:36.165Z,3.08
2022-07-25T20:31:42.821Z,3.15
2022-07-25T20:36:48.666Z,2.72
2022-07-25T20:41:54.675Z,3.30
2022-07-25T20:47:00.093Z,2.70
2022-07-25T20:52:05.732Z,2.98
2022-07-25T20:57:12.014Z,2.98
2022-07-25T21:02:17.732Z,3.30
2022-07-25T21:07:23.236Z,2.30
2022-07-25T21:12:32.425Z,2.95
2022-07-25T21:17:36.196Z,3.10
2022-07-25T21:22:41.723Z,3.08
2022-07-25T21:27:48.463Z,2.80
2022-07-25T21:32:53.796Z,2.53
2022-07-25T21:37:59.456Z,2.77
2022-07-25T21:43:04.757Z,2.98
2022-07-25T21:48:11.777Z,3.08
2022-07-25T21:53:17.927Z,3.47
2022-07-25T21:58:23.451Z,2.90
2022-07-25T22:03:28.996Z,2.90
2022-07-25T22:08:34.561Z,3.00
2022-07-25T22:13:43.164Z,3.05
2022-07-25T22:18:47.585Z,3.00
2022-07-25T22:23:57.802Z,2.87
2022-07-25T22:29:03.395Z,2.80
2022-07-25T22:34:09.987Z,3.00
2022-07-25T22:39:17.167Z,2.75
2022-07-25T22:44:22.781Z,3.00
2022-07-25T22:49:30.331Z,2.80
2022-07-25T22:54:37.966Z,3.83
2022-07-25T22:59:43.554Z,3.10
2022-07-25T23:04:49.186Z,2.80
2022-07-25T23:09:54.748Z,3.33
2022-07-25T23:15:00.629Z,2.87
2022-07-25T23:20:08.061Z,2.67
2022-07-25T23:25:13.736Z,2.53
2022-07-25T23:30:19.223Z,2.27
2022-07-25T23:35:24.770Z,2.80
2022-07-25T23:40:30.952Z,2.77
2022-07-25T23:45:51.371Z,2.70
2022-07-25T23:50:57.364Z,2.63
2022-07-25T23:56:02.937Z,2.17
